createdAt,value
2023-02-04T00:00:01.409Z,3.70
2023-02-04T00:03:03.651Z,3.80
2023-02-04T00:06:06.139Z,3.80
2023-02-04T00:09:08.748Z,3.80
2023-02-04T00:12:10.887Z,3.80
2023-02-04T00:15:13.011Z,3.70
2023-02-04T00:18:15.105Z,3.60
2023-02-04T00:21:17.192Z,3.60
2023-02-04T00:24:19.268Z,3.60
2023-02-04T00:27:21.397Z,3.60
2023-02-04T00:30:23.560Z,3.50
2023-02-04T00:33:25.777Z,3.50
2023-02-04T00:36:27.985Z,3.40
2023-02-04T00:39:30.109Z,3.40
2023-02-04T00:42:32.277Z,3.40
2023-02-04T00:45:34.455Z,3.30
2023-02-04T00:48:36.666Z,3.30
2023-02-04T00:51:39.937Z,3.30
2023-02-04T00:54:42.044Z,3.20
2023-02-04T00:57:47.027Z,3.20
2023-02-04T01:00:49.188Z,3.20
2023-02-04T01:03:51.373Z,3.10
2023-02-04T01:06:53.502Z,3.20
2023-02-04T01:09:55.600Z,3.20
2023-02-04T01:12:57.728Z,3.20
2023-02-04T01:15:59.847Z,3.20
2023-02-04T01:19:02.084Z,3.10
2023-02-04T01:22:04.144Z,3.00
2023-02-04T01:25:06.844Z,2.90
2023-02-04T01:28:09.355Z,2.80
2023-02-04T01:31:12.048Z,2.60
2023-02-04T01:34:14.275Z,2.50
2023-02-04T01:37:17.869Z,2.40
2023-02-04T01:40:20.278Z,2.30
2023-02-04T01:43:23.264Z,2.20
2023-02-04T01:46:25.557Z,2.30
2023-02-04T01:49:28.586Z,2.30
2023-02-04T01:52:36.719Z,2.20
2023-02-04T01:55:38.773Z,2.10
2023-02-04T01:58:41.217Z,2.10
2023-02-04T02:01:49.623Z,2.40
2023-02-04T02:04:51.720Z,2.50
2023-02-04T02:07:56.630Z,2.30
2023-02-04T02:10:58.796Z,2.00
2023-02-04T02:14:01.373Z,1.80
2023-02-04T02:17:03.812Z,1.60
2023-02-04T02:20:11.459Z,1.60
2023-02-04T02:23:21.896Z,1.80
2023-02-04T02:26:24.656Z,2.10
2023-02-04T02:29:28.326Z,2.20
2023-02-04T02:32:30.571Z,2.10
2023-02-04T02:35:33.542Z,1.90
2023-02-04T02:38:36.622Z,1.70
2023-02-04T02:41:38.759Z,1.60
2023-02-04T02:44:41.208Z,1.70
2023-02-04T02:47:43.350Z,1.70
2023-02-04T02:50:45.842Z,1.70
2023-02-04T02:53:49.625Z,1.70
2023-02-04T02:56:52.996Z,1.70
2023-02-04T02:59:55.243Z,1.70
2023-02-04T03:03:03.709Z,1.70
2023-02-04T03:06:21.308Z,1.80
2023-02-04T03:09:27.050Z,1.80
2023-02-04T03:12:29.216Z,1.80
2023-02-04T03:15:32.045Z,1.70
2023-02-04T03:18:35.407Z,1.70
2023-02-04T03:21:38.030Z,1.60
2023-02-04T03:24:40.274Z,1.60
2023-02-04T03:27:42.318Z,1.60
2023-02-04T03:30:44.577Z,1.70
2023-02-04T03:33:46.740Z,1.80
2023-02-04T03:36:48.861Z,1.80
2023-02-04T03:39:51.004Z,1.90
2023-02-04T03:42:53.215Z,2.00
2023-02-04T03:45:55.413Z,2.10
2023-02-04T03:48:57.584Z,2.10
2023-02-04T03:51:59.642Z,2.10
2023-02-04T03:55:01.858Z,2.30
2023-02-04T03:58:05.060Z,2.40
2023-02-04T04:01:07.195Z,2.60
2023-02-04T04:04:09.249Z,2.70
2023-02-04T04:07:11.337Z,2.80
2023-02-04T04:10:13.545Z,3.00
2023-02-04T04:13:15.772Z,3.30
2023-02-04T04:16:17.902Z,3.30
2023-02-04T04:19:20.080Z,3.40
2023-02-04T04:22:22.379Z,3.50
2023-02-04T04:25:24.561Z,3.50
2023-02-04T04:28:26.628Z,3.50
2023-02-04T04:31:28.937Z,3.50
2023-02-04T04:34:31.507Z,3.50
2023-02-04T04:37:35.251Z,3.30
2023-02-04T04:40:37.438Z,3.10
2023-02-04T04:43:39.470Z,3.00
2023-02-04T04:46:41.653Z,2.90
2023-02-04T04:49:43.791Z,2.80
2023-02-04T04:52:46.065Z,2.80
2023-02-04T04:55:48.178Z,2.70
2023-02-04T04:58:50.312Z,2.70
2023-02-04T05:01:52.532Z,2.60
2023-02-04T05:04:55.202Z,2.50
2023-02-04T05:07:57.595Z,2.30
2023-02-04T05:10:59.746Z,2.20
2023-02-04T05:14:01.920Z,2.00
2023-02-04T05:17:04.000Z,1.90
2023-02-04T05:20:06.551Z,1.80
2023-02-04T05:23:09.228Z,1.60
2023-02-04T05:26:13.632Z,1.50
2023-02-04T05:29:17.410Z,1.40
2023-02-04T05:32:19.498Z,1.30
2023-02-04T05:35:21.701Z,1.20
2023-02-04T05:38:23.877Z,1.00
2023-02-04T05:41:25.992Z,1.10
2023-02-04T05:44:28.102Z,1.30
2023-02-04T05:47:30.093Z,1.70
2023-02-04T05:50:32.578Z,1.90
2023-02-04T05:53:34.877Z,1.90
2023-02-04T05:56:36.940Z,2.10
2023-02-04T05:59:39.173Z,2.30
2023-02-04T06:02:41.350Z,2.60
2023-02-04T06:05:44.366Z,2.90
2023-02-04T06:08:46.409Z,3.10
2023-02-04T06:11:48.513Z,3.20
2023-02-04T06:14:50.586Z,3.30
2023-02-04T06:17:53.352Z,3.50
2023-02-04T06:20:55.479Z,3.50
2023-02-04T06:23:57.583Z,3.60
2023-02-04T06:26:59.684Z,3.80
2023-02-04T06:30:01.993Z,3.90
2023-02-04T06:33:05.379Z,4.00
2023-02-04T06:36:07.744Z,4.10
2023-02-04T06:39:09.898Z,4.20
2023-02-04T06:42:12.044Z,4.10
2023-02-04T06:45:14.137Z,4.30
2023-02-04T06:48:16.374Z,4.40
2023-02-04T06:51:18.492Z,4.50
2023-02-04T06:54:20.684Z,4.60
2023-02-04T06:57:22.848Z,4.60
2023-02-04T07:00:25.124Z,4.70
2023-02-04T07:03:27.203Z,4.70
2023-02-04T07:06:29.527Z,4.80
2023-02-04T07:09:31.717Z,5.00
2023-02-04T07:12:33.901Z,5.20
2023-02-04T07:15:36.256Z,5.20
2023-02-04T07:18:38.517Z,5.10
2023-02-04T07:21:40.693Z,4.70
2023-02-04T07:24:42.807Z,4.00
2023-02-04T07:27:45.105Z,3.60
2023-02-04T07:30:47.895Z,3.50
2023-02-04T07:33:50.138Z,3.60
2023-02-04T07:36:52.560Z,3.60
2023-02-04T07:39:54.758Z,3.60
2023-02-04T07:42:57.036Z,3.60
2023-02-04T07:45:59.174Z,3.60
2023-02-04T07:49:01.374Z,3.70
2023-02-04T07:52:03.539Z,3.80
2023-02-04T07:55:06.637Z,3.80
2023-02-04T07:58:08.919Z,3.70
2023-02-04T08:01:13.873Z,3.70
2023-02-04T08:04:16.068Z,3.70
2023-02-04T08:07:18.205Z,4.00
2023-02-04T08:10:21.502Z,4.10
2023-02-04T08:13:23.800Z,4.30
2023-02-04T08:16:25.938Z,4.40
2023-02-04T08:19:28.935Z,4.50
2023-02-04T08:22:31.123Z,4.60
2023-02-04T08:25:33.208Z,4.70
2023-02-04T08:28:35.288Z,4.60
2023-02-04T08:31:38.290Z,4.60
2023-02-04T08:34:40.605Z,4.60
2023-02-04T08:37:42.821Z,4.60
2023-02-04T08:40:45.058Z,4.60
2023-02-04T08:43:47.154Z,4.60
2023-02-04T08:46:49.357Z,4.60
2023-02-04T08:49:51.543Z,4.60
2023-02-04T08:52:53.702Z,4.70
2023-02-04T09:14:54.531Z,5.20
2023-02-04T09:18:04.710Z,6.30
2023-02-04T09:21:06.932Z,6.80
2023-02-04T09:24:09.076Z,7.10
2023-02-04T09:27:11.318Z,7.40
2023-02-04T09:30:14.015Z,7.40
2023-02-04T09:33:17.118Z,7.10
2023-02-04T09:36:20.657Z,7.10
2023-02-04T09:39:22.791Z,7.50
2023-02-04T09:42:26.361Z,7.40
2023-02-04T09:45:30.989Z,7.10
2023-02-04T10:13:00.157Z,7.30
2023-02-04T10:29:59.678Z,6.40
2023-02-04T10:33:22.320Z,5.70
2023-02-04T10:57:53.695Z,5.20
2023-02-04T11:00:56.590Z,5.30
2023-02-04T11:03:58.917Z,5.20
2023-02-04T11:07:01.037Z,5.00
2023-02-04T11:10:03.508Z,5.00
2023-02-04T13:32:59.698Z,7.60
2023-02-04T13:36:02.177Z,8.20
2023-02-04T13:50:03.002Z,8.20
2023-02-04T13:53:05.763Z,7.70
2023-02-04T13:56:08.198Z,8.10
2023-02-04T13:59:10.629Z,8.20
2023-02-04T14:02:12.961Z,8.40
2023-02-04T14:05:15.796Z,8.50
2023-02-04T14:08:18.237Z,8.60
2023-02-04T14:11:20.364Z,8.30
2023-02-04T14:14:22.735Z,8.40
2023-02-04T14:17:25.524Z,8.10
2023-02-04T14:20:27.804Z,7.90
2023-02-04T14:23:29.926Z,7.80
2023-02-04T14:26:32.025Z,8.10
2023-02-04T14:29:34.914Z,8.00
2023-02-04T14:32:37.257Z,8.30
2023-02-04T14:35:39.491Z,8.00
2023-02-04T14:38:41.839Z,7.80
2023-02-04T14:41:44.363Z,7.30
2023-02-04T14:44:46.936Z,7.40
2023-02-04T14:47:49.293Z,7.40
2023-02-04T14:50:51.866Z,6.70
2023-02-04T14:53:54.779Z,7.20
2023-02-04T14:56:57.338Z,6.70
2023-02-04T14:59:59.988Z,6.00
2023-02-04T15:03:02.356Z,5.20
2023-02-04T15:06:04.985Z,5.20
2023-02-04T15:09:07.118Z,5.50
2023-02-04T15:12:09.407Z,6.00
2023-02-04T15:15:11.932Z,6.20
2023-02-04T15:18:14.018Z,5.90
2023-02-04T15:21:17.396Z,4.80
2023-02-04T15:24:20.696Z,4.20
2023-02-04T15:27:22.933Z,3.90
2023-02-04T15:30:26.252Z,3.70
2023-02-04T15:33:28.453Z,3.60
2023-02-04T15:36:30.767Z,3.40
2023-02-04T15:39:33.190Z,3.10
2023-02-04T15:42:36.722Z,2.90
2023-02-04T15:45:41.544Z,2.80
2023-02-04T15:48:43.734Z,2.60
2023-02-04T15:51:45.850Z,2.50
2023-02-04T15:54:48.212Z,2.50
2023-02-04T15:57:50.991Z,2.50
2023-02-04T16:00:54.980Z,2.40
2023-02-04T16:03:59.004Z,2.40
2023-02-04T16:07:04.901Z,2.30
2023-02-04T16:10:08.103Z,2.30
2023-02-04T16:13:10.374Z,2.20
2023-02-04T16:16:12.726Z,2.10
2023-02-04T16:19:15.625Z,2.00
2023-02-04T16:22:18.048Z,1.90
2023-02-04T16:25:22.081Z,1.80
2023-02-04T16:28:25.366Z,1.70
2023-02-04T16:31:28.066Z,1.60
2023-02-04T16:34:30.807Z,1.60
2023-02-04T16:37:34.426Z,1.50
2023-02-04T16:40:36.938Z,1.50
2023-02-04T16:43:39.250Z,1.30
2023-02-04T16:46:41.563Z,1.30
2023-02-04T16:49:48.310Z,1.30
2023-02-04T16:52:50.912Z,1.30
2023-02-04T16:55:53.125Z,1.20
2023-02-04T16:58:55.981Z,1.20
2023-02-04T17:02:00.638Z,1.10
2023-02-04T17:05:04.612Z,1.30
2023-02-04T17:08:08.855Z,1.20
2023-02-04T17:11:29.411Z,1.30
2023-02-04T17:14:31.849Z,1.40
2023-02-04T17:17:33.935Z,1.30
2023-02-04T17:20:36.945Z,1.30
2023-02-04T17:23:40.913Z,1.30
2023-02-04T17:26:43.217Z,1.30
2023-02-04T17:29:45.325Z,1.30
2023-02-04T17:32:48.200Z,1.20
2023-02-04T17:35:50.569Z,1.20
2023-02-04T17:38:53.088Z,1.30
2023-02-04T17:41:55.911Z,1.10
2023-02-04T17:44:58.819Z,1.10
2023-02-04T17:48:01.682Z,1.10
2023-02-04T17:51:04.433Z,1.20
2023-02-04T17:54:07.060Z,1.10
2023-02-04T17:57:28.261Z,1.10
2023-02-04T18:00:32.113Z,1.10
2023-02-04T18:03:36.181Z,1.00
2023-02-04T18:06:39.140Z,1.00
2023-02-04T18:09:41.807Z,1.00
2023-02-04T18:12:44.177Z,0.90
2023-02-04T18:15:57.582Z,0.80
2023-02-04T18:19:22.503Z,0.80
2023-02-04T18:22:25.657Z,0.80
2023-02-04T18:25:29.045Z,0.80
2023-02-04T18:28:36.813Z,0.80
2023-02-04T18:31:51.112Z,0.90
2023-02-04T18:34:55.974Z,0.90
2023-02-04T18:38:01.671Z,0.80
2023-02-04T18:41:20.900Z,0.70
2023-02-04T18:44:31.845Z,0.60
2023-02-04T18:47:38.579Z,0.60
2023-02-04T18:50:41.767Z,0.70
2023-02-04T18:53:45.669Z,0.70
2023-02-04T18:56:49.147Z,0.70
2023-02-04T18:59:53.468Z,0.70
2023-02-04T19:02:59.507Z,0.70
2023-02-04T19:06:03.872Z,0.70
2023-02-04T19:09:13.540Z,0.70
2023-02-04T19:12:39.192Z,0.70
2023-02-04T19:15:41.996Z,0.60
2023-02-04T19:18:46.334Z,0.60
2023-02-04T19:21:50.560Z,0.60
2023-02-04T19:25:22.263Z,0.50
2023-02-04T19:28:31.251Z,0.50
2023-02-04T19:31:34.794Z,0.60
2023-02-04T19:34:39.219Z,0.70
2023-02-04T19:37:43.365Z,0.70
2023-02-04T19:40:49.193Z,0.80
2023-02-04T19:43:54.888Z,0.80
2023-02-04T19:47:04.889Z,0.80
2023-02-04T19:50:21.129Z,0.80
2023-02-04T19:53:29.744Z,0.70
2023-02-04T19:56:38.648Z,0.70
2023-02-04T19:59:42.758Z,0.60
2023-02-04T20:02:45.528Z,0.60
2023-02-04T20:05:47.942Z,0.70
2023-02-04T20:08:55.773Z,0.70
2023-02-04T20:12:05.962Z,0.80
2023-02-04T20:15:19.966Z,0.80
2023-02-04T20:18:26.511Z,0.70
2023-02-04T20:21:29.745Z,0.80
2023-02-04T20:24:39.204Z,0.80
2023-02-04T20:27:41.786Z,0.80
2023-02-04T20:30:48.832Z,0.70
2023-02-04T20:33:57.194Z,0.80
2023-02-04T20:36:59.674Z,0.80
2023-02-04T20:40:19.499Z,0.70
2023-02-04T20:43:24.389Z,0.70
2023-02-04T20:46:27.031Z,0.70
2023-02-04T20:49:29.403Z,0.70
2023-02-04T20:52:46.077Z,0.70
2023-02-04T20:55:55.094Z,0.70
2023-02-04T20:59:13.208Z,0.70
2023-02-04T21:02:20.918Z,0.80
2023-02-04T21:05:26.749Z,0.70
2023-02-04T21:08:38.019Z,0.70
2023-02-04T21:11:40.407Z,0.70
2023-02-04T21:14:43.676Z,0.60
2023-02-04T21:17:45.932Z,0.70
2023-02-04T21:20:48.809Z,0.60
2023-02-04T21:23:52.767Z,0.60
2023-02-04T21:26:55.759Z,0.70
2023-02-04T21:29:58.961Z,0.70
2023-02-04T21:33:02.572Z,0.70
2023-02-04T21:36:05.288Z,0.70
2023-02-04T21:39:07.685Z,0.70
2023-02-04T21:42:10.488Z,0.80
2023-02-04T21:45:13.282Z,0.80
2023-02-04T21:48:16.069Z,0.70
2023-02-04T21:51:18.273Z,0.60
2023-02-04T21:54:20.662Z,0.50
2023-02-04T21:57:23.170Z,0.40
2023-02-04T22:00:25.601Z,0.30
2023-02-04T22:03:28.053Z,0.30
2023-02-04T22:06:30.336Z,0.20
2023-02-04T22:09:32.842Z,0.20
2023-02-04T22:12:35.479Z,0.10
2023-02-04T22:15:37.623Z,0.00
2023-02-04T22:18:39.796Z,-0.10
2023-02-04T22:21:41.917Z,-0.10
2023-02-04T22:24:44.404Z,-0.10
2023-02-04T22:27:46.827Z,-0.10
2023-02-04T22:30:49.202Z,0.00
2023-02-04T22:33:51.368Z,0.00
2023-02-04T22:36:53.933Z,0.00
2023-02-04T22:39:56.060Z,0.00
2023-02-04T22:42:58.450Z,0.00
2023-02-04T22:46:00.573Z,0.10
2023-02-04T22:49:02.730Z,0.10
2023-02-04T22:52:05.203Z,0.10
2023-02-04T22:55:07.488Z,0.20
2023-02-04T22:58:09.568Z,0.10
2023-02-04T23:01:11.735Z,0.10
2023-02-04T23:04:13.909Z,0.00
2023-02-04T23:07:16.264Z,0.10
2023-02-04T23:10:18.578Z,0.10
2023-02-04T23:13:20.806Z,0.10
2023-02-04T23:16:22.946Z,0.20
2023-02-04T23:19:25.080Z,0.20
2023-02-04T23:22:28.105Z,0.30
2023-02-04T23:25:30.365Z,0.30
2023-02-04T23:28:32.659Z,0.30
2023-02-04T23:31:34.778Z,0.20
2023-02-04T23:34:37.358Z,0.20
2023-02-04T23:37:39.543Z,0.20
2023-02-04T23:40:42.637Z,0.20
2023-02-04T23:43:44.748Z,0.10
2023-02-04T23:46:46.871Z,0.10
2023-02-04T23:49:49.498Z,0.10
2023-02-04T23:52:51.662Z,0.10
2023-02-04T23:55:53.792Z,0.10
2023-02-04T23:58:56.248Z,0.10
